Time;durP1;ratioP1;P1;durP2;ratioP2;P2;SDS_P1;SDS_P2;PMS_P1;PMS_P2;Temp;Humidity;BMP_temperature;BMP_pressure;BME280_temperature;BME280_humidity;BME280_pressure;Samples;Min_cycle;Max_cycle;Signal;HPM_P1;HPM_P2
2021/10/05 00:02:05;;;;;;;18.30;16.50;;;;;;;13.28;87.31;99281.22;4996143;28;20243;-91
2021/10/05 00:04:32;;;;;;;18.73;16.73;;;;;;;13.21;87.18;99262.53;4995144;28;20261;-83
2021/10/05 00:06:59;;;;;;;17.43;15.43;;;;;;;13.19;87.60;99260.09;4981557;28;20636;-79
2021/10/05 00:09:25;;;;;;;18.60;16.20;;;;;;;13.13;87.79;99257.56;5015700;28;20692;-78
2021/10/05 00:11:52;;;;;;;19.10;16.77;;;;;;;13.11;87.51;99259.72;4998603;28;20232;-80
2021/10/05 00:14:19;;;;;;;19.93;16.37;;;;;;;13.16;87.32;99273.22;5014672;28;20319;-86
2021/10/05 00:16:47;;;;;;;19.53;16.63;;;;;;;13.10;87.83;99277.69;5014647;28;20216;-84
2021/10/05 00:19:15;;;;;;;17.50;15.70;;;;;;;13.09;87.60;99267.97;4998697;28;20228;-88
2021/10/05 00:21:42;;;;;;;18.90;16.43;;;;;;;13.04;87.51;99256.31;5014986;28;20266;-81
2021/10/05 00:24:10;;;;;;;17.87;15.97;;;;;;;13.00;88.07;99253.31;5014204;28;20635;-85
2021/10/05 00:26:38;;;;;;;17.47;15.67;;;;;;;13.02;87.74;99258.41;4998416;28;20615;-88
2021/10/05 00:29:05;;;;;;;18.50;16.40;;;;;;;12.94;87.95;99259.66;5014649;28;20232;-85
2021/10/05 00:31:32;;;;;;;18.90;16.90;;;;;;;12.91;87.78;99253.94;5014827;28;20301;-85
2021/10/05 00:33:59;;;;;;;18.63;16.60;;;;;;;12.90;88.10;99244.25;4998639;28;20228;-83
2021/10/05 00:36:26;;;;;;;17.80;16.00;;;;;;;12.88;88.17;99249.06;5015957;28;20231;-81
2021/10/05 00:38:52;;;;;;;18.13;15.67;;;;;;;12.91;87.67;99249.41;4999195;28;20224;-79
2021/10/05 00:41:19;;;;;;;17.07;15.33;;;;;;;12.83;87.74;99241.72;5018075;28;20232;-80
2021/10/05 00:43:46;;;;;;;17.73;15.83;;;;;;;12.90;87.45;99244.25;5022518;28;20236;-78
2021/10/05 00:46:13;;;;;;;18.53;16.53;;;;;;;12.83;87.91;99227.47;5025838;28;20265;-82
2021/10/05 00:48:41;;;;;;;21.27;16.93;;;;;;;12.78;88.22;99226.31;5027964;28;20214;-82
2021/10/05 00:51:11;;;;;;;19.37;17.33;;;;;;;12.84;88.33;99226.41;5028540;28;20232;-80
2021/10/05 00:53:39;;;;;;;19.50;17.33;;;;;;;12.66;88.30;99201.38;5028913;28;20198;-80
2021/10/05 00:56:10;;;;;;;17.63;15.83;;;;;;;12.72;88.08;99210.34;5027461;28;20645;-79
2021/10/05 00:58:39;;;;;;;18.70;16.70;;;;;;;12.69;88.33;99208.16;5012070;28;20233;-80
2021/10/05 01:01:06;;;;;;;17.90;16.00;;;;;;;12.59;88.41;99203.44;5030103;28;20211;-77
2021/10/05 01:03:35;;;;;;;18.43;15.83;;;;;;;12.61;88.71;99206.69;5051476;23;20258;-77
2021/10/05 01:06:06;;;;;;;17.60;15.70;;;;;;;12.51;88.24;99194.94;5033682;28;20280;-78
2021/10/05 01:08:39;;;;;;;17.63;15.40;;;;;;;12.45;88.65;99199.41;5048985;28;20227;-80
2021/10/05 01:11:06;;;;;;;17.00;15.17;;;;;;;12.41;88.82;99194.78;5048769;28;20309;-79
2021/10/05 01:13:35;;;;;;;17.43;15.53;;;;;;;12.47;88.24;99196.47;5047965;28;20231;-80
2021/10/05 01:16:04;;;;;;;16.30;14.60;;;;;;;12.46;88.35;99197.56;5031546;28;20243;-79
2021/10/05 01:18:32;;;;;;;16.37;14.63;;;;;;;12.48;88.28;99198.13;5032799;28;20233;-80
2021/10/05 01:21:13;;;;;;;15.67;13.97;;;;;;;12.40;87.89;99196.66;5048501;28;20312;-80
2021/10/05 01:23:40;;;;;;;15.17;13.67;;;;;;;12.42;87.81;99186.44;5031313;28;20225;-79
2021/10/05 01:26:07;;;;;;;16.07;14.37;;;;;;;12.30;88.23;99183.03;5032518;28;20235;-80
2021/10/05 01:28:36;;;;;;;15.77;14.07;;;;;;;12.30;88.49;99172.28;5049995;28;20224;-79
2021/10/05 01:31:07;;;;;;;16.13;14.53;;;;;;;12.26;88.53;99163.09;5031977;28;20226;-80
2021/10/05 01:33:35;;;;;;;16.03;14.43;;;;;;;12.30;88.67;99173.09;5048546;28;20238;-79
2021/10/05 01:36:03;;;;;;;16.53;14.83;;;;;;;12.31;88.72;99160.50;5048106;28;20260;-79
2021/10/05 01:38:29;;;;;;;17.30;15.03;;;;;;;12.38;88.50;99165.69;5048817;28;20272;-79
2021/10/05 01:40:59;;;;;;;18.07;15.43;;;;;;;12.32;88.37;99154.84;5032107;28;20226;-80
2021/10/05 01:43:26;;;;;;;15.40;13.60;;;;;;;12.22;88.51;99140.44;5032671;28;20510;-79
2021/10/05 01:45:54;;;;;;;16.03;14.33;;;;;;;12.24;88.67;99141.00;5050075;28;20290;-79
2021/10/05 01:48:22;;;;;;;17.03;15.33;;;;;;;12.27;88.47;99135.97;5047802;28;20313;-80
2021/10/05 01:50:55;;;;;;;18.23;16.33;;;;;;;12.33;88.95;99134.19;5055332;23;20229;-79
2021/10/05 01:53:26;;;;;;;16.47;14.63;;;;;;;12.34;89.11;99135.81;5030894;28;20252;-79
2021/10/05 01:55:53;;;;;;;17.20;15.40;;;;;;;12.30;89.04;99140.88;5049524;28;20276;-79
2021/10/05 01:58:22;;;;;;;17.60;15.70;;;;;;;12.26;88.86;99130.84;5048528;28;20247;-79
2021/10/05 02:00:50;;;;;;;16.13;14.53;;;;;;;12.43;89.26;99142.41;5049008;28;20467;-80
2021/10/05 02:03:19;;;;;;;17.17;15.37;;;;;;;12.60;88.98;99142.41;5049510;28;20221;-79
2021/10/05 02:05:53;;;;;;;18.90;15.60;;;;;;;12.65;88.35;99131.75;5048630;28;20641;-79
2021/10/05 02:08:24;;;;;;;18.00;15.30;;;;;;;12.49;88.52;99117.28;5046430;28;20234;-79
2021/10/05 02:10:58;;;;;;;17.43;15.63;;;;;;;12.46;88.83;99106.22;5048211;28;20286;-79
2021/10/05 02:13:26;;;;;;;17.33;15.50;;;;;;;12.46;89.15;99096.25;5048883;28;20286;-79
2021/10/05 02:15:53;;;;;;;17.50;15.60;;;;;;;12.46;89.30;99093.56;5047769;28;20186;-79
2021/10/05 02:18:20;;;;;;;18.47;16.40;;;;;;;12.70;89.25;99100.41;5047947;28;20211;-79
2021/10/05 02:20:47;;;;;;;19.77;16.87;;;;;;;12.66;89.66;99093.88;5047602;28;20210;-80
2021/10/05 02:23:16;;;;;;;20.00;16.87;;;;;;;12.70;90.22;99095.00;5050812;28;20254;-79
2021/10/05 02:25:43;;;;;;;19.83;16.17;;;;;;;12.73;90.43;99105.28;5048780;28;20225;-79
2021/10/05 02:28:10;;;;;;;17.10;14.97;;;;;;;12.58;90.54;99088.94;5047080;28;20226;-79
2021/10/05 02:30:38;;;;;;;17.63;15.83;;;;;;;12.69;90.88;99097.97;5047394;28;20225;-79
2021/10/05 02:33:05;;;;;;;17.73;15.83;;;;;;;13.00;91.29;99097.34;5048340;28;20233;-79
2021/10/05 02:35:33;;;;;;;19.47;17.13;;;;;;;13.14;92.45;99092.44;5046701;28;20586;-79
2021/10/05 02:38:02;;;;;;;21.57;17.17;;;;;;;13.40;92.49;99086.31;5047915;28;20241;-79
2021/10/05 02:40:33;;;;;;;21.37;17.17;;;;;;;13.67;92.20;99081.78;5046441;28;20218;-80
2021/10/05 02:43:04;;;;;;;19.53;16.67;;;;;;;13.86;91.82;99084.94;5046371;28;20238;-80
2021/10/05 02:45:39;;;;;;;18.33;16.33;;;;;;;13.96;91.85;99093.13;5045744;28;20233;-80
2021/10/05 02:48:06;;;;;;;18.00;15.77;;;;;;;13.94;91.00;99087.19;5045801;28;20229;-83
2021/10/05 02:50:33;;;;;;;16.73;14.93;;;;;;;13.88;90.66;99092.78;5036080;28;20235;-81
2021/10/05 02:52:59;;;;;;;16.00;14.33;;;;;;;13.78;90.85;99092.66;5035954;28;20223;-81
2021/10/05 02:55:26;;;;;;;15.30;13.70;;;;;;;13.70;90.78;99090.44;5019376;28;20231;-84
2021/10/05 02:57:53;;;;;;;16.03;13.83;;;;;;;13.64;90.46;99090.38;5035749;28;20527;-80
2021/10/05 03:00:19;;;;;;;15.13;13.17;;;;;;;13.71;90.85;99084.00;5019065;28;20229;-77
2021/10/05 03:02:46;;;;;;;15.43;13.80;;;;;;;13.73;90.27;99084.53;5035959;28;20247;-89
2021/10/05 03:05:13;;;;;;;17.03;14.23;;;;;;;13.88;90.81;99090.09;5036505;28;20231;-85
2021/10/05 03:07:39;;;;;;;16.30;14.27;;;;;;;14.03;91.54;99066.00;5035581;28;20229;-82
2021/10/05 03:10:07;;;;;;;15.57;14.00;;;;;;;14.25;90.60;99072.13;5034833;28;20244;-89
2021/10/05 03:12:34;;;;;;;15.43;13.97;;;;;;;14.52;90.19;99077.47;5035717;28;20286;-83
2021/10/05 03:15:00;;;;;;;15.17;12.80;;;;;;;14.69;89.34;99080.84;5018785;28;20227;-83
2021/10/05 03:17:27;;;;;;;14.27;11.87;;;;;;;14.99;88.12;99089.13;5035427;28;20334;-82
2021/10/05 03:19:54;;;;;;;13.23;11.83;;;;;;;15.16;86.61;99085.44;5019107;28;20259;-84
2021/10/05 03:22:21;;;;;;;12.47;11.23;;;;;;;15.40;85.21;99100.91;5034709;28;20240;-79
2021/10/05 03:24:47;;;;;;;12.40;11.10;;;;;;;15.65;83.59;99100.25;5035160;28;20223;-87
2021/10/05 03:27:14;;;;;;;12.50;11.17;;;;;;;15.72;82.57;99089.22;5018660;28;20233;-84
2021/10/05 03:29:41;;;;;;;13.27;11.87;;;;;;;15.78;81.76;99083.53;5018815;28;20630;-83
2021/10/05 03:32:08;;;;;;;13.00;11.70;;;;;;;15.95;80.89;99085.22;5018506;28;20844;-88
2021/10/05 03:34:35;;;;;;;12.10;10.80;;;;;;;16.19;79.68;99091.72;5018743;28;20313;-92
2021/10/05 03:37:03;;;;;;;12.23;10.77;;;;;;;16.22;79.35;99070.38;5034891;28;20236;-78
2021/10/05 03:39:30;;;;;;;12.63;11.33;;;;;;;16.17;79.03;99073.06;5018531;28;20232;-82
2021/10/05 03:41:56;;;;;;;13.17;11.07;;;;;;;16.32;78.57;99079.56;5035181;28;20246;-85
2021/10/05 03:44:25;;;;;;;12.10;10.90;;;;;;;16.38;78.20;99073.88;5018466;28;20281;-82
2021/10/05 03:46:52;;;;;;;14.13;10.80;;;;;;;16.34;77.51;99063.88;5025890;28;20233;-89
2021/10/05 03:49:19;;;;;;;14.23;12.73;;;;;;;16.28;78.05;99071.97;5009660;28;20217;-84
2021/10/05 03:51:47;;;;;;;13.87;12.53;;;;;;;16.22;78.52;99062.28;5023362;28;20233;-87
2021/10/05 03:54:14;;;;;;;14.07;12.67;;;;;;;16.19;78.80;99072.81;5025710;28;20278;-86
2021/10/05 03:56:40;;;;;;;17.77;15.77;;;;;;;16.04;79.36;99075.50;5018284;28;20240;-82
2021/10/05 03:59:08;;;;;;;17.40;15.50;;;;;;;15.69;80.47;99065.41;5034624;28;20240;-85
2021/10/05 04:01:35;;;;;;;18.70;16.70;;;;;;;15.64;81.07;99074.31;5034601;28;20748;-90
2021/10/05 04:04:02;;;;;;;17.67;15.80;;;;;;;15.58;81.22;99069.19;5034232;28;20236;-85
2021/10/05 04:06:29;;;;;;;16.60;14.60;;;;;;;15.54;81.63;99060.78;5018171;28;20309;-79
2021/10/05 04:08:55;;;;;;;15.27;13.87;;;;;;;15.41;81.74;99062.06;5018317;28;20244;-83
2021/10/05 04:11:22;;;;;;;14.27;12.83;;;;;;;15.36;82.54;99075.53;5034506;28;20583;-90
2021/10/05 04:13:49;;;;;;;15.30;13.80;;;;;;;15.34;82.03;99063.41;5018373;28;20233;-81
2021/10/05 04:16:16;;;;;;;15.77;14.17;;;;;;;15.28;82.08;99059.03;5034133;28;20240;-90
2021/10/05 04:18:42;;;;;;;15.27;13.70;;;;;;;15.31;81.79;99062.03;5017601;28;20586;-90
2021/10/05 04:21:10;;;;;;;15.50;14.00;;;;;;;15.31;82.02;99056.63;5034485;28;20237;-84
2021/10/05 04:23:37;;;;;;;15.20;13.70;;;;;;;15.24;81.98;99047.16;5018058;28;20327;-90
2021/10/05 04:26:03;;;;;;;15.40;13.80;;;;;;;15.15;82.85;99038.75;5017956;28;20293;-86
2021/10/05 04:28:30;;;;;;;17.17;13.73;;;;;;;15.14;82.44;99037.13;5001538;28;20600;-88
2021/10/05 04:30:57;;;;;;;14.60;12.93;;;;;;;15.15;81.95;99032.56;5018121;28;20228;-85
2021/10/05 04:33:23;;;;;;;13.90;12.57;;;;;;;15.10;81.83;99037.91;5018176;28;20234;-86
2021/10/05 04:35:50;;;;;;;14.40;12.40;;;;;;;15.13;81.87;99035.50;5017745;28;20238;-83
2021/10/05 04:38:17;;;;;;;14.00;12.10;;;;;;;15.12;81.87;99035.75;5034141;28;20239;-87
2021/10/05 04:40:44;;;;;;;13.50;12.20;;;;;;;15.14;81.77;99047.94;5034042;28;20230;-82
2021/10/05 04:43:11;;;;;;;13.67;12.27;;;;;;;15.32;81.80;99057.44;5034401;28;20231;-87
2021/10/05 04:45:38;;;;;;;13.17;11.87;;;;;;;15.39;80.98;99066.13;5017909;28;20333;-82
2021/10/05 04:48:06;;;;;;;13.70;12.27;;;;;;;15.42;80.62;99071.78;5017418;28;20256;-89
2021/10/05 04:50:33;;;;;;;13.60;12.20;;;;;;;15.27;81.30;99065.50;5033910;28;20228;-80
2021/10/05 04:53:00;;;;;;;14.07;12.57;;;;;;;15.30;81.11;99073.88;5034648;28;20220;-88
2021/10/05 04:55:27;;;;;;;14.87;13.00;;;;;;;15.29;80.75;99085.78;5017916;28;20228;-87
2021/10/05 04:57:54;;;;;;;14.80;13.13;;;;;;;15.16;81.25;99080.06;5017866;28;20224;-90
2021/10/05 05:00:20;;;;;;;14.47;13.07;;;;;;;15.03;81.80;99080.50;5033562;28;20540;-83
2021/10/05 05:02:47;;;;;;;14.87;13.40;;;;;;;14.93;81.83;99078.59;4999804;28;20572;-84
2021/10/05 05:05:14;;;;;;;14.63;13.23;;;;;;;14.93;81.79;99073.97;5015084;28;20224;-83
2021/10/05 05:07:40;;;;;;;14.90;13.40;;;;;;;14.82;81.63;99082.28;5031858;28;20687;-86
2021/10/05 05:10:07;;;;;;;15.43;14.03;;;;;;;14.84;81.91;99077.41;5033980;28;20211;-82
2021/10/05 05:12:35;;;;;;;15.97;14.27;;;;;;;14.81;82.51;99073.38;5033651;28;20248;-88
2021/10/05 05:15:03;;;;;;;17.20;13.93;;;;;;;14.87;81.84;99064.25;5033673;28;20247;-85
2021/10/05 05:17:30;;;;;;;15.63;13.93;;;;;;;14.85;81.85;99052.91;5034099;28;20228;-90
2021/10/05 05:19:57;;;;;;;14.83;13.33;;;;;;;14.78;82.04;99048.81;5017546;28;20228;-81
2021/10/05 05:22:23;;;;;;;13.67;12.30;;;;;;;14.85;82.25;99063.69;5033344;28;20227;-81
2021/10/05 05:24:50;;;;;;;13.67;12.27;;;;;;;14.86;82.45;99053.72;5017562;28;20226;-88
2021/10/05 05:27:17;;;;;;;13.57;12.10;;;;;;;14.97;82.34;99041.91;5033905;28;20235;-80
2021/10/05 05:29:44;;;;;;;14.20;11.10;;;;;;;15.11;82.00;99037.66;5036244;28;20233;-88
2021/10/05 05:32:10;;;;;;;13.20;11.80;;;;;;;15.23;81.51;99037.44;5036374;28;20240;-83
2021/10/05 05:34:37;;;;;;;12.87;11.60;;;;;;;15.32;81.43;99033.97;5020362;28;20635;-84
2021/10/05 05:37:06;;;;;;;12.70;11.13;;;;;;;15.42;80.49;99030.50;5037208;28;20234;-89
2021/10/05 05:39:39;;;;;;;12.30;11.00;;;;;;;15.68;79.85;99050.28;5037294;28;20278;-85
2021/10/05 05:42:07;;;;;;;12.47;10.90;;;;;;;15.69;79.34;99035.72;5020878;28;20229;-79
2021/10/05 05:44:34;;;;;;;12.13;10.90;;;;;;;15.84;78.87;99043.84;5037294;28;20230;-80
2021/10/05 05:47:01;;;;;;;11.83;10.77;;;;;;;16.04;77.92;99045.78;5037125;28;20246;-81
2021/10/05 05:49:28;;;;;;;13.60;10.90;;;;;;;16.21;77.29;99051.72;5020418;28;20226;-81
2021/10/05 05:51:55;;;;;;;12.27;11.13;;;;;;;16.39;76.54;99056.59;5036850;28;20598;-91
2021/10/05 05:54:21;;;;;;;15.83;10.30;;;;;;;16.47;76.13;99052.53;5036513;28;20226;-92
2021/10/05 05:56:48;;;;;;;11.40;10.17;;;;;;;16.57;75.77;99055.22;5037032;28;20237;-89
2021/10/05 05:59:15;;;;;;;11.70;10.50;;;;;;;16.67;75.32;99060.63;5038108;28;20225;-89
2021/10/05 06:01:41;;;;;;;11.63;9.50;;;;;;;16.85;74.14;99064.66;5020456;28;20292;-86
2021/10/05 06:04:08;;;;;;;11.53;10.47;;;;;;;16.91;73.79;99061.69;5020265;28;20257;-86
2021/10/05 06:06:35;;;;;;;11.20;9.77;;;;;;;17.05;73.19;99064.63;5036736;28;20318;-84
2021/10/05 06:09:03;;;;;;;10.77;9.77;;;;;;;17.23;72.44;99061.31;5020467;28;20234;-83
2021/10/05 06:11:33;;;;;;;10.87;9.77;;;;;;;17.39;71.33;99056.66;5036470;28;20300;-85
2021/10/05 06:14:00;;;;;;;10.03;9.03;;;;;;;17.45;71.29;99033.88;5036796;28;20264;-90
2021/10/05 06:16:27;;;;;;;9.93;8.97;;;;;;;17.53;70.44;99033.28;5019739;28;20645;-89
2021/10/05 06:18:54;;;;;;;10.60;8.83;;;;;;;17.50;70.90;99020.28;5020060;28;20656;-80
2021/10/05 06:21:21;;;;;;;10.33;9.33;;;;;;;17.63;70.18;99011.59;5036713;28;20230;-85
2021/10/05 06:23:48;;;;;;;10.67;9.67;;;;;;;17.70;69.96;99014.00;5019987;28;20317;-83
2021/10/05 06:26:15;;;;;;;11.33;9.03;;;;;;;17.79;69.41;99015.81;5035780;28;20236;-86
2021/10/05 06:28:43;;;;;;;9.13;8.33;;;;;;;17.79;69.23;99010.41;5036292;28;20227;-80
2021/10/05 06:31:10;;;;;;;9.93;9.03;;;;;;;17.90;68.55;99011.97;5019962;28;20230;-85
2021/10/05 06:33:36;;;;;;;9.40;8.50;;;;;;;18.06;67.63;99009.16;5019734;28;20250;-82
2021/10/05 06:36:03;;;;;;;9.93;8.33;;;;;;;18.15;67.17;99007.44;5019186;28;20236;-87
2021/10/05 06:38:30;;;;;;;9.13;8.27;;;;;;;18.18;66.34;99021.22;5019546;28;20349;-90
2021/10/05 06:40:58;;;;;;;8.87;8.00;;;;;;;18.26;66.22;99015.19;5035511;28;20695;-90
2021/10/05 06:43:24;;;;;;;11.10;8.40;;;;;;;18.26;66.08;99017.91;5019553;28;20249;-87
2021/10/05 06:45:51;;;;;;;9.60;8.00;;;;;;;18.47;65.26;99030.22;5019036;28;20236;-81
2021/10/05 06:48:18;;;;;;;8.43;7.67;;;;;;;18.49;64.69;99016.34;5036540;28;20234;-81
2021/10/05 06:50:45;;;;;;;8.40;7.63;;;;;;;18.58;64.75;99006.50;5019358;28;20232;-84
2021/10/05 06:53:16;;;;;;;8.70;7.80;;;;;;;18.66;64.03;99016.75;5036956;28;20230;-81
2021/10/05 06:55:44;;;;;;;8.10;7.30;;;;;;;18.77;63.78;99012.03;5019724;28;20316;-82
2021/10/05 06:58:11;;;;;;;8.73;7.40;;;;;;;18.84;63.50;99017.94;5019111;28;20230;-81
2021/10/05 07:00:38;;;;;;;8.47;7.67;;;;;;;18.91;62.68;99008.34;5035694;28;20341;-81
2021/10/05 07:03:04;;;;;;;9.30;7.97;;;;;;;19.06;62.59;99011.97;5002897;28;20578;-88
2021/10/05 07:05:31;;;;;;;7.93;7.10;;;;;;;19.11;62.20;99022.78;5035641;28;20226;-86
2021/10/05 07:07:58;;;;;;;9.13;7.20;;;;;;;19.20;61.90;99023.75;5035502;28;20230;-84
2021/10/05 07:10:25;;;;;;;8.37;7.67;;;;;;;19.23;61.89;99034.81;5018595;28;20236;-83
2021/10/05 07:12:52;;;;;;;8.30;7.50;;;;;;;19.34;61.58;99052.63;5019144;28;20233;-80
2021/10/05 07:15:20;;;;;;;7.50;6.67;;;;;;;19.48;61.03;99058.19;5002926;28;20234;-83
2021/10/05 07:17:51;;;;;;;8.00;7.20;;;;;;;19.48;60.26;99049.22;5019155;28;20222;-84
2021/10/05 07:20:27;;;;;;;7.77;6.97;;;;;;;19.76;59.99;99065.41;5034967;28;20495;-86
2021/10/05 07:22:54;;;;;;;7.17;6.57;;;;;;;19.85;59.28;99065.56;5019196;28;20214;-83
2021/10/05 07:25:21;;;;;;;7.30;6.00;;;;;;;19.94;58.44;99063.81;5018698;28;20581;-86
2021/10/05 07:27:51;;;;;;;7.63;6.83;;;;;;;20.07;58.50;99062.25;5002668;28;20237;-89
2021/10/05 07:30:24;;;;;;;7.60;6.43;;;;;;;20.20;57.96;99059.59;5018372;28;20230;-86
2021/10/05 07:32:56;;;;;;;7.43;6.73;;;;;;;20.25;57.72;99057.91;5019240;28;20226;-85
2021/10/05 07:35:25;;;;;;;7.30;6.50;;;;;;;20.33;57.29;99057.25;5034807;28;20272;-83
2021/10/05 07:37:53;;;;;;;8.13;6.77;;;;;;;20.46;56.87;99049.13;5018613;28;20235;-87
2021/10/05 07:40:20;;;;;;;6.90;6.13;;;;;;;20.61;56.64;99061.69;5034347;28;20288;-87
2021/10/05 07:42:49;;;;;;;6.90;6.17;;;;;;;20.61;56.34;99053.53;5035191;28;20650;-88
2021/10/05 07:45:16;;;;;;;7.33;6.53;;;;;;;20.70;55.82;99059.06;5016435;28;20296;-81
2021/10/05 07:47:43;;;;;;;6.90;6.20;;;;;;;20.79;55.57;99049.09;5015712;28;20234;-81
2021/10/05 07:50:11;;;;;;;8.00;6.60;;;;;;;21.03;55.32;99057.91;5017673;28;20232;-87
2021/10/05 07:52:38;;;;;;;7.10;6.23;;;;;;;21.16;54.85;99075.41;5033997;28;20254;-86
2021/10/05 07:55:05;;;;;;;6.63;6.03;;;;;;;21.25;54.71;99079.03;5014991;28;20228;-86
2021/10/05 07:57:32;;;;;;;7.07;6.47;;;;;;;21.29;54.53;99080.03;5015431;28;20642;-82
2021/10/05 07:59:59;;;;;;;6.47;5.97;;;;;;;21.38;54.43;99076.31;5001636;28;20238;-87
2021/10/05 08:02:25;;;;;;;7.17;6.47;;;;;;;21.45;53.93;99087.63;5033729;28;20228;-84
2021/10/05 08:04:53;;;;;;;6.80;6.13;;;;;;;21.52;53.92;99082.56;5017918;28;20220;-86
2021/10/05 08:07:20;;;;;;;6.83;6.23;;;;;;;21.67;54.31;99088.78;5034174;28;20650;-86
2021/10/05 08:09:47;;;;;;;9.23;6.97;;;;;;;21.70;54.33;99091.72;5033932;28;20236;-86
2021/10/05 08:12:14;;;;;;;7.23;6.53;;;;;;;21.80;54.03;99091.50;5033700;28;20238;-82
2021/10/05 08:14:41;;;;;;;6.97;6.33;;;;;;;21.84;53.79;99083.50;5033923;28;20314;-86
2021/10/05 08:17:08;;;;;;;7.27;6.67;;;;;;;21.90;53.96;99083.09;5033853;28;20239;-87
2021/10/05 08:19:34;;;;;;;6.70;6.10;;;;;;;21.97;53.72;99073.72;5033878;28;20241;-86
2021/10/05 08:22:01;;;;;;;7.40;6.73;;;;;;;22.15;53.16;99083.66;5033463;28;20239;-86
2021/10/05 08:24:28;;;;;;;7.27;6.00;;;;;;;22.15;53.01;99079.03;5033860;28;20218;-86
2021/10/05 08:26:54;;;;;;;7.13;6.43;;;;;;;22.24;53.00;99082.63;5033749;28;20250;-87
2021/10/05 08:29:21;;;;;;;6.60;5.93;;;;;;;22.35;52.10;99061.34;5017404;28;20310;-85
2021/10/05 08:31:49;;;;;;;7.10;6.50;;;;;;;22.53;51.70;99070.47;5017343;28;20230;-84
2021/10/05 08:34:17;;;;;;;6.43;5.77;;;;;;;22.60;51.38;99066.19;5016840;28;20319;-87
2021/10/05 08:36:45;;;;;;;7.10;6.40;;;;;;;22.67;51.88;99063.81;5017829;28;20274;-88
2021/10/05 08:39:14;;;;;;;9.60;6.07;;;;;;;22.78;50.60;99070.66;5017485;28;20680;-81
2021/10/05 08:41:45;;;;;;;6.50;5.77;;;;;;;22.87;49.94;99067.16;5033529;28;20247;-83
2021/10/05 08:44:13;;;;;;;6.40;5.80;;;;;;;22.86;50.25;99065.56;5016984;28;20255;-86
2021/10/05 08:46:40;;;;;;;6.80;6.07;;;;;;;22.88;50.39;99050.47;5017124;28;20509;-82
2021/10/05 08:49:07;;;;;;;6.47;5.87;;;;;;;23.04;49.99;99069.97;5033575;28;20579;-86
2021/10/05 08:51:34;;;;;;;6.33;5.57;;;;;;;23.08;49.14;99077.22;5017124;28;20238;-85
2021/10/05 08:54:01;;;;;;;6.83;6.07;;;;;;;23.01;49.18;99063.19;5034145;28;20585;-86
2021/10/05 08:56:28;;;;;;;7.60;6.00;;;;;;;23.16;48.77;99068.25;5033595;28;20233;-85
2021/10/05 08:58:55;;;;;;;6.60;5.70;;;;;;;23.34;48.25;99076.50;5017034;28;20252;-82
2021/10/05 09:01:22;;;;;;;6.00;5.50;;;;;;;23.43;47.36;99078.16;5017176;28;20226;-83
2021/10/05 09:03:54;;;;;;;6.03;5.43;;;;;;;23.51;47.12;99071.16;5019079;28;20317;-84
2021/10/05 09:06:23;;;;;;;6.13;5.37;;;;;;;23.61;47.22;99077.09;5036859;28;20232;-85
2021/10/05 09:08:53;;;;;;;5.38;4.97;;;;;;;23.70;46.54;99077.91;5037254;28;20264;-84
2021/10/05 09:11:24;;;;;;;6.60;5.35;;;;;;;23.83;46.67;99070.72;5020825;28;20309;-87
2021/10/05 09:13:55;;;;;;;6.20;5.25;;;;;;;23.94;46.06;99073.94;5037173;28;20249;-86
2021/10/05 09:16:30;;;;;;;6.20;4.97;;;;;;;24.06;45.62;99071.38;5020261;28;20514;-86
2021/10/05 09:18:57;;;;;;;6.35;5.78;;;;;;;24.14;45.41;99065.91;5020730;28;20280;-82
2021/10/05 09:21:27;;;;;;;5.65;5.18;;;;;;;24.19;45.22;99050.47;5036931;28;20238;-86
2021/10/05 09:23:57;;;;;;;6.07;5.47;;;;;;;24.15;45.17;99039.34;5037129;28;20320;-83
2021/10/05 09:26:32;;;;;;;6.07;5.37;;;;;;;24.31;45.40;99045.94;5019903;28;20237;-86
2021/10/05 09:29:40;;;;;;;5.63;5.13;;;;;;;24.33;45.22;99043.72;5020275;28;20641;-86
2021/10/05 09:32:18;;;;;;;8.80;5.50;;;;;;;24.34;45.17;99031.63;5033594;28;20551;-83
2021/10/05 09:34:53;;;;;;;7.47;5.53;;;;;;;24.41;45.13;99042.88;5020117;28;20651;-82
2021/10/05 09:37:22;;;;;;;6.23;5.13;;;;;;;24.47;45.33;99032.56;5036537;28;20543;-86
2021/10/05 09:39:55;;;;;;;5.57;5.07;;;;;;;24.53;45.64;99045.78;5020201;28;20634;-82
2021/10/05 09:42:32;;;;;;;6.00;5.40;;;;;;;24.53;45.30;99034.03;5003925;28;20535;-82
2021/10/05 09:45:02;;;;;;;5.55;4.95;;;;;;;24.56;45.35;99027.88;5020270;28;20304;-82
2021/10/05 09:47:38;;;;;;;6.00;5.50;;;;;;;24.59;45.51;99031.91;5036597;28;20234;-83
2021/10/05 09:50:08;;;;;;;7.45;5.70;;;;;;;24.62;45.63;99034.81;5019746;28;20230;-84
2021/10/05 09:52:40;;;;;;;5.78;5.18;;;;;;;24.68;46.04;99033.50;5020706;28;20240;-82
2021/10/05 09:55:07;;;;;;;9.30;5.53;;;;;;;24.65;45.26;99031.41;5036926;28;20313;-86
2021/10/05 09:57:35;;;;;;;5.78;5.00;;;;;;;24.79;45.20;99029.25;5020292;28;20230;-85
2021/10/05 10:00:06;;;;;;;5.82;5.32;;;;;;;24.72;45.14;99020.75;5036445;28;20262;-82
2021/10/05 10:02:41;;;;;;;6.53;5.35;;;;;;;24.87;45.39;99025.72;5021175;28;20584;-82
2021/10/05 10:05:14;;;;;;;5.90;5.15;;;;;;;24.86;45.24;99010.44;5020371;28;20237;-86
2021/10/05 10:07:43;;;;;;;6.25;5.50;;;;;;;25.03;44.98;99011.47;5036648;28;20231;-85
2021/10/05 10:10:13;;;;;;;5.78;5.18;;;;;;;25.21;44.63;99013.00;5036030;28;20232;-85
2021/10/05 10:12:50;;;;;;;7.18;5.65;;;;;;;25.11;44.35;99003.22;5020264;28;20233;-85
2021/10/05 10:15:19;;;;;;;8.40;5.10;;;;;;;25.21;44.36;98997.34;5035433;28;20230;-85
2021/10/05 10:17:46;;;;;;;6.22;5.15;;;;;;;25.24;44.40;98999.41;5020206;28;20230;-86
2021/10/05 10:20:26;;;;;;;5.45;4.95;;;;;;;25.21;44.17;98986.38;5019385;28;20228;-81
2021/10/05 10:22:55;;;;;;;6.18;5.03;;;;;;;25.26;43.98;98990.88;5020198;28;20534;-82
2021/10/05 10:25:25;;;;;;;6.32;5.00;;;;;;;25.46;43.68;98987.38;5019972;28;20238;-82
2021/10/05 10:27:57;;;;;;;5.30;4.80;;;;;;;25.53;43.57;98981.34;5036182;28;20575;-85
2021/10/05 10:30:28;;;;;;;5.60;5.10;;;;;;;25.51;43.65;98976.22;5015882;28;20591;-83
2021/10/05 10:33:01;;;;;;;5.50;5.03;;;;;;;25.57;44.05;98971.38;5016605;28;20241;-85
2021/10/05 10:35:28;;;;;;;5.90;5.03;;;;;;;25.47;43.78;98960.75;5000018;28;20232;-85
2021/10/05 10:37:56;;;;;;;6.25;5.05;;;;;;;25.48;43.45;98960.41;4999603;28;20228;-86
2021/10/05 10:40:35;;;;;;;5.55;5.10;;;;;;;25.53;44.27;98964.88;5016069;28;20354;-82
2021/10/05 10:43:13;;;;;;;7.15;5.55;;;;;;;25.50;44.55;98960.06;5016203;28;20273;-85
2021/10/05 10:45:52;;;;;;;5.90;5.35;;;;;;;25.49;44.16;98936.53;5016094;28;20291;-85
2021/10/05 10:48:34;;;;;;;6.55;5.85;;;;;;;25.53;44.29;98948.44;4997059;28;20242;-83
2021/10/05 10:51:15;;;;;;;6.97;6.22;;;;;;;25.72;43.71;98940.56;4980190;28;20232;-84
2021/10/05 10:53:44;;;;;;;6.10;5.60;;;;;;;25.81;43.47;98935.81;5012873;28;20274;-85
2021/10/05 10:56:33;;;;;;;7.20;6.50;;;;;;;25.85;43.69;98937.53;5012021;28;20232;-86
2021/10/05 10:59:04;;;;;;;9.52;6.47;;;;;;;25.76;43.32;98914.06;5012562;28;20223;-86
2021/10/05 11:01:52;;;;;;;10.55;7.70;;;;;;;25.97;43.36;98934.06;5012650;28;20244;-83
2021/10/05 11:04:20;;;;;;;6.35;5.75;;;;;;;26.09;42.74;98931.34;4979722;28;20721;-82
2021/10/05 11:06:49;;;;;;;7.20;5.72;;;;;;;26.15;42.52;98929.19;4980031;28;20232;-82
2021/10/05 11:09:16;;;;;;;7.47;5.00;;;;;;;26.26;42.94;98933.94;4979932;28;20261;-85
2021/10/05 11:11:49;;;;;;;6.00;5.50;;;;;;;26.44;41.51;98936.50;5012158;28;20631;-86
2021/10/05 11:14:21;;;;;;;6.72;5.50;;;;;;;26.66;41.49;98944.31;4979768;28;20237;-86
2021/10/05 11:16:59;;;;;;;6.57;5.38;;;;;;;26.78;40.76;98938.03;4995819;28;20283;-82
2021/10/05 11:19:38;;;;;;;5.82;5.30;;;;;;;26.99;40.43;98941.47;4979929;28;20246;-86
2021/10/05 11:22:09;;;;;;;6.97;5.20;;;;;;;26.95;40.62;98935.06;4999000;28;20584;-87
2021/10/05 11:24:49;;;;;;;5.70;5.20;;;;;;;27.17;39.98;98934.59;4999366;28;20662;-84
2021/10/05 11:27:21;;;;;;;6.70;5.20;;;;;;;27.23;39.83;98933.22;5016234;28;20708;-82
2021/10/05 11:29:49;;;;;;;6.97;5.53;;;;;;;27.35;39.19;98926.88;4999220;28;20229;-82
2021/10/05 11:32:18;;;;;;;6.30;5.00;;;;;;;27.39;39.32;98920.34;4997571;28;20244;-85